sensor_id;sensor_type;location;lat;lon;timestamp;P1;durP1;ratioP1;P2;durP2;ratioP2
72085;SDS011;64750;52.134;5.424;2023-10-31T00:02:00;1.55;;;0.43;;
72085;SDS011;64750;52.134;5.424;2023-10-31T00:04:27;3.43;;;0.63;;
72085;SDS011;64750;52.134;5.424;2023-10-31T00:06:54;3.63;;;1.02;;
72085;SDS011;64750;52.134;5.424;2023-10-31T00:09:20;2.35;;;0.40;;
72085;SDS011;64750;52.134;5.424;2023-10-31T00:11:47;1.70;;;0.50;;
72085;SDS011;64750;52.134;5.424;2023-10-31T00:14:13;1.15;;;0.32;;
72085;SDS011;64750;52.134;5.424;2023-10-31T00:16:56;4.27;;;0.47;;
72085;SDS011;64750;52.134;5.424;2023-10-31T00:19:26;1.58;;;0.28;;
72085;SDS011;64750;52.134;5.424;2023-10-31T00:21:53;2.33;;;0.40;;
72085;SDS011;64750;52.134;5.424;2023-10-31T00:24:19;1.80;;;0.47;;
72085;SDS011;64750;52.134;5.424;2023-10-31T00:26:46;1.65;;;1.02;;
72085;SDS011;64750;52.134;5.424;2023-10-31T00:29:12;3.97;;;0.50;;
72085;SDS011;64750;52.134;5.424;2023-10-31T00:31:41;1.45;;;0.40;;
72085;SDS011;64750;52.134;5.424;2023-10-31T00:34:08;2.28;;;0.63;;
72085;SDS011;64750;52.134;5.424;2023-10-31T00:36:35;1.83;;;0.70;;
72085;SDS011;64750;52.134;5.424;2023-10-31T00:39:01;3.67;;;1.80;;
72085;SDS011;64750;52.134;5.424;2023-10-31T00:41:28;2.30;;;1.67;;
72085;SDS011;64750;52.134;5.424;2023-10-31T00:43:54;2.00;;;1.75;;
72085;SDS011;64750;52.134;5.424;2023-10-31T00:46:21;2.50;;;1.70;;
72085;SDS011;64750;52.134;5.424;2023-10-31T00:48:47;2.97;;;2.20;;
72085;SDS011;64750;52.134;5.424;2023-10-31T00:51:14;4.72;;;2.35;;
72085;SDS011;64750;52.134;5.424;2023-10-31T00:53:40;3.50;;;2.67;;
72085;SDS011;64750;52.134;5.424;2023-10-31T00:56:07;3.78;;;2.75;;
72085;SDS011;64750;52.134;5.424;2023-10-31T00:58:33;4.30;;;3.00;;
72085;SDS011;64750;52.134;5.424;2023-10-31T01:01:00;3.35;;;3.05;;
72085;SDS011;64750;52.134;5.424;2023-10-31T01:03:27;3.72;;;3.17;;
72085;SDS011;64750;52.134;5.424;2023-10-31T01:05:53;6.50;;;3.73;;
72085;SDS011;64750;52.134;5.424;2023-10-31T01:08:20;3.53;;;3.20;;
72085;SDS011;64750;52.134;5.424;2023-10-31T01:10:46;4.43;;;3.15;;
72085;SDS011;64750;52.134;5.424;2023-10-31T01:13:13;5.57;;;3.25;;
72085;SDS011;64750;52.134;5.424;2023-10-31T01:15:39;3.70;;;3.22;;
72085;SDS011;64750;52.134;5.424;2023-10-31T01:18:06;4.03;;;2.80;;
72085;SDS011;64750;52.134;5.424;2023-10-31T01:20:33;4.72;;;3.10;;
72085;SDS011;64750;52.134;5.424;2023-10-31T01:22:59;3.50;;;3.20;;
72085;SDS011;64750;52.134;5.424;2023-10-31T01:25:25;4.60;;;3.45;;
72085;SDS011;64750;52.134;5.424;2023-10-31T01:27:52;4.40;;;3.72;;
72085;SDS011;64750;52.134;5.424;2023-10-31T01:30:18;9.90;;;4.23;;
72085;SDS011;64750;52.134;5.424;2023-10-31T01:32:45;4.43;;;3.95;;
72085;SDS011;64750;52.134;5.424;2023-10-31T01:35:11;4.95;;;4.50;;
72085;SDS011;64750;52.134;5.424;2023-10-31T01:37:38;6.93;;;4.10;;
72085;SDS011;64750;52.134;5.424;2023-10-31T01:40:05;5.10;;;3.85;;
72085;SDS011;64750;52.134;5.424;2023-10-31T01:42:33;6.50;;;3.73;;
72085;SDS011;64750;52.134;5.424;2023-10-31T01:45:00;5.93;;;3.97;;
72085;SDS011;64750;52.134;5.424;2023-10-31T01:47:26;4.18;;;3.05;;
72085;SDS011;64750;52.134;5.424;2023-10-31T01:49:53;3.58;;;3.10;;
72085;SDS011;64750;52.134;5.424;2023-10-31T01:52:19;5.32;;;3.97;;
72085;SDS011;64750;52.134;5.424;2023-10-31T01:54:46;4.57;;;2.57;;
72085;SDS011;64750;52.134;5.424;2023-10-31T01:57:12;6.32;;;3.20;;
72085;SDS011;64750;52.134;5.424;2023-10-31T01:59:40;3.95;;;3.20;;
72085;SDS011;64750;52.134;5.424;2023-10-31T02:02:06;4.13;;;3.30;;
72085;SDS011;64750;52.134;5.424;2023-10-31T02:04:34;7.78;;;3.75;;
72085;SDS011;64750;52.134;5.424;2023-10-31T02:07:00;7.40;;;4.63;;
72085;SDS011;64750;52.134;5.424;2023-10-31T02:09:27;7.47;;;4.07;;
72085;SDS011;64750;52.134;5.424;2023-10-31T02:11:56;4.78;;;4.28;;
72085;SDS011;64750;52.134;5.424;2023-10-31T02:14:23;5.60;;;4.15;;
72085;SDS011;64750;52.134;5.424;2023-10-31T02:16:50;6.90;;;4.15;;
72085;SDS011;64750;52.134;5.424;2023-10-31T02:19:18;5.77;;;4.53;;
72085;SDS011;64750;52.134;5.424;2023-10-31T02:21:46;4.90;;;4.10;;
72085;SDS011;64750;52.134;5.424;2023-10-31T02:24:13;12.30;;;4.53;;
72085;SDS011;64750;52.134;5.424;2023-10-31T02:26:39;4.68;;;4.28;;
72085;SDS011;64750;52.134;5.424;2023-10-31T02:29:06;6.40;;;5.00;;
72085;SDS011;64750;52.134;5.424;2023-10-31T02:31:33;6.43;;;5.13;;
72085;SDS011;64750;52.134;5.424;2023-10-31T02:34:00;5.28;;;4.75;;
72085;SDS011;64750;52.134;5.424;2023-10-31T02:36:26;5.43;;;4.88;;
72085;SDS011;64750;52.134;5.424;2023-10-31T02:38:53;5.70;;;4.43;;
72085;SDS011;64750;52.134;5.424;2023-10-31T02:41:19;5.70;;;5.20;;
72085;SDS011;64750;52.134;5.424;2023-10-31T02:43:46;7.03;;;4.60;;
72085;SDS011;64750;52.134;5.424;2023-10-31T02:46:12;6.40;;;4.90;;
72085;SDS011;64750;52.134;5.424;2023-10-31T02:48:41;4.35;;;3.95;;
72085;SDS011;64750;52.134;5.424;2023-10-31T02:51:08;5.32;;;4.35;;
72085;SDS011;64750;52.134;5.424;2023-10-31T02:53:35;4.68;;;4.28;;
72085;SDS011;64750;52.134;5.424;2023-10-31T02:56:02;4.00;;;3.67;;
72085;SDS011;64750;52.134;5.424;2023-10-31T02:58:29;4.72;;;3.60;;
72085;SDS011;64750;52.134;5.424;2023-10-31T03:00:56;5.07;;;3.53;;
72085;SDS011;64750;52.134;5.424;2023-10-31T03:03:22;4.47;;;3.10;;
72085;SDS011;64750;52.134;5.424;2023-10-31T03:05:49;3.17;;;2.60;;
72085;SDS011;64750;52.134;5.424;2023-10-31T03:08:15;2.40;;;2.20;;
72085;SDS011;64750;52.134;5.424;2023-10-31T03:10:47;4.95;;;2.58;;
72085;SDS011;64750;52.134;5.424;2023-10-31T03:13:17;2.63;;;2.40;;
72085;SDS011;64750;52.134;5.424;2023-10-31T03:15:46;4.88;;;2.67;;
72085;SDS011;64750;52.134;5.424;2023-10-31T03:18:13;3.38;;;2.70;;
72085;SDS011;64750;52.134;5.424;2023-10-31T03:20:43;3.87;;;2.17;;
72085;SDS011;64750;52.134;5.424;2023-10-31T03:23:10;4.30;;;1.92;;
72085;SDS011;64750;52.134;5.424;2023-10-31T03:25:37;7.07;;;2.67;;
72085;SDS011;64750;52.134;5.424;2023-10-31T03:28:04;1.83;;;1.73;;
72085;SDS011;64750;52.134;5.424;2023-10-31T03:30:31;8.05;;;2.90;;
72085;SDS011;64750;52.134;5.424;2023-10-31T03:32:57;3.47;;;1.77;;
72085;SDS011;64750;52.134;5.424;2023-10-31T03:35:24;2.88;;;1.63;;
72085;SDS011;64750;52.134;5.424;2023-10-31T03:37:50;1.67;;;1.58;;
72085;SDS011;64750;52.134;5.424;2023-10-31T03:40:17;3.17;;;1.50;;
72085;SDS011;64750;52.134;5.424;2023-10-31T03:42:43;1.70;;;1.30;;
72085;SDS011;64750;52.134;5.424;2023-10-31T03:45:10;4.43;;;1.50;;
72085;SDS011;64750;52.134;5.424;2023-10-31T03:47:36;2.20;;;1.30;;
72085;SDS011;64750;52.134;5.424;2023-10-31T03:50:03;1.42;;;0.90;;
72085;SDS011;64750;52.134;5.424;2023-10-31T03:52:30;2.03;;;0.68;;
72085;SDS011;64750;52.134;5.424;2023-10-31T03:54:56;1.52;;;0.80;;
72085;SDS011;64750;52.134;5.424;2023-10-31T03:57:23;1.27;;;0.47;;
72085;SDS011;64750;52.134;5.424;2023-10-31T03:59:49;3.17;;;0.70;;
72085;SDS011;64750;52.134;5.424;2023-10-31T04:02:16;1.33;;;0.50;;
72085;SDS011;64750;52.134;5.424;2023-10-31T04:04:42;1.20;;;0.43;;
72085;SDS011;64750;52.134;5.424;2023-10-31T04:07:09;0.85;;;0.50;;
72085;SDS011;64750;52.134;5.424;2023-10-31T04:09:35;1.53;;;0.27;;
72085;SDS011;64750;52.134;5.424;2023-10-31T04:12:02;1.67;;;0.47;;
72085;SDS011;64750;52.134;5.424;2023-10-31T04:14:28;0.38;;;0.20;;
72085;SDS011;64750;52.134;5.424;2023-10-31T04:16:55;2.75;;;0.82;;
72085;SDS011;64750;52.134;5.424;2023-10-31T04:19:21;2.25;;;0.30;;
72085;SDS011;64750;52.134;5.424;2023-10-31T04:21:48;1.10;;;0.40;;
72085;SDS011;64750;52.134;5.424;2023-10-31T04:24:14;0.43;;;0.43;;
72085;SDS011;64750;52.134;5.424;2023-10-31T04:26:41;0.60;;;0.30;;
72085;SDS011;64750;52.134;5.424;2023-10-31T04:29:07;2.08;;;0.40;;
72085;SDS011;64750;52.134;5.424;2023-10-31T04:31:34;0.52;;;0.30;;
72085;SDS011;64750;52.134;5.424;2023-10-31T04:34:09;0.97;;;0.30;;
72085;SDS011;64750;52.134;5.424;2023-10-31T04:36:35;1.90;;;0.60;;
72085;SDS011;64750;52.134;5.424;2023-10-31T04:39:02;1.27;;;0.28;;
72085;SDS011;64750;52.134;5.424;2023-10-31T04:41:29;2.72;;;0.30;;
72085;SDS011;64750;52.134;5.424;2023-10-31T04:43:55;1.00;;;0.47;;
72085;SDS011;64750;52.134;5.424;2023-10-31T04:46:24;0.50;;;0.20;;
72085;SDS011;64750;52.134;5.424;2023-10-31T04:48:51;0.90;;;0.30;;
72085;SDS011;64750;52.134;5.424;2023-10-31T04:51:17;1.48;;;0.20;;
72085;SDS011;64750;52.134;5.424;2023-10-31T04:53:43;0.52;;;0.30;;
72085;SDS011;64750;52.134;5.424;2023-10-31T04:56:13;1.38;;;0.35;;
72085;SDS011;64750;52.134;5.424;2023-10-31T04:58:41;1.00;;;0.40;;
72085;SDS011;64750;52.134;5.424;2023-10-31T05:01:09;0.98;;;0.38;;
72085;SDS011;64750;52.134;5.424;2023-10-31T05:03:39;1.55;;;0.45;;
72085;SDS011;64750;52.134;5.424;2023-10-31T05:06:06;0.40;;;0.30;;
72085;SDS011;64750;52.134;5.424;2023-10-31T05:08:33;0.80;;;0.40;;
72085;SDS011;64750;52.134;5.424;2023-10-31T05:10:59;1.03;;;0.30;;
72085;SDS011;64750;52.134;5.424;2023-10-31T05:13:26;1.50;;;0.40;;
72085;SDS011;64750;52.134;5.424;2023-10-31T05:15:52;3.42;;;0.50;;
72085;SDS011;64750;52.134;5.424;2023-10-31T05:18:19;0.60;;;0.20;;
72085;SDS011;64750;52.134;5.424;2023-10-31T05:20:46;0.20;;;0.20;;
72085;SDS011;64750;52.134;5.424;2023-10-31T05:23:13;0.23;;;0.20;;
72085;SDS011;64750;52.134;5.424;2023-10-31T05:25:40;0.65;;;0.30;;
72085;SDS011;64750;52.134;5.424;2023-10-31T05:28:06;0.35;;;0.30;;
72085;SDS011;64750;52.134;5.424;2023-10-31T05:30:33;0.80;;;0.30;;
72085;SDS011;64750;52.134;5.424;2023-10-31T05:32:59;2.10;;;0.20;;
72085;SDS011;64750;52.134;5.424;2023-10-31T05:35:26;0.80;;;0.37;;
72085;SDS011;64750;52.134;5.424;2023-10-31T05:37:52;0.63;;;0.20;;
72085;SDS011;64750;52.134;5.424;2023-10-31T05:40:19;1.63;;;0.30;;
72085;SDS011;64750;52.134;5.424;2023-10-31T05:42:48;1.25;;;0.30;;
72085;SDS011;64750;52.134;5.424;2023-10-31T05:45:14;0.30;;;0.20;;
72085;SDS011;64750;52.134;5.424;2023-10-31T05:47:41;0.53;;;0.30;;
72085;SDS011;64750;52.134;5.424;2023-10-31T05:50:08;0.40;;;0.20;;
72085;SDS011;64750;52.134;5.424;2023-10-31T05:52:34;0.40;;;0.30;;
72085;SDS011;64750;52.134;5.424;2023-10-31T05:55:02;1.60;;;0.40;;
72085;SDS011;64750;52.134;5.424;2023-10-31T05:57:29;1.17;;;0.30;;
72085;SDS011;64750;52.134;5.424;2023-10-31T05:59:55;0.70;;;0.50;;
72085;SDS011;64750;52.134;5.424;2023-10-31T06:02:22;0.82;;;0.50;;
72085;SDS011;64750;52.134;5.424;2023-10-31T06:04:49;0.90;;;0.55;;
72085;SDS011;64750;52.134;5.424;2023-10-31T06:07:15;2.33;;;0.73;;
72085;SDS011;64750;52.134;5.424;2023-10-31T06:09:42;0.80;;;0.70;;
72085;SDS011;64750;52.134;5.424;2023-10-31T06:12:09;6.27;;;2.30;;
72085;SDS011;64750;52.134;5.424;2023-10-31T06:14:37;0.80;;;0.70;;
72085;SDS011;64750;52.134;5.424;2023-10-31T06:17:04;2.65;;;1.20;;
72085;SDS011;64750;52.134;5.424;2023-10-31T06:19:37;5.53;;;1.75;;
72085;SDS011;64750;52.134;5.424;2023-10-31T06:22:04;2.83;;;1.98;;
72085;SDS011;64750;52.134;5.424;2023-10-31T06:24:30;2.00;;;1.80;;
72085;SDS011;64750;52.134;5.424;2023-10-31T06:26:56;2.47;;;1.70;;
72085;SDS011;64750;52.134;5.424;2023-10-31T06:29:23;1.90;;;1.70;;
72085;SDS011;64750;52.134;5.424;2023-10-31T06:31:52;2.70;;;2.17;;
72085;SDS011;64750;52.134;5.424;2023-10-31T06:34:19;2.83;;;2.30;;
72085;SDS011;64750;52.134;5.424;2023-10-31T06:36:45;2.97;;;1.97;;
72085;SDS011;64750;52.134;5.424;2023-10-31T06:39:12;2.22;;;1.83;;
72085;SDS011;64750;52.134;5.424;2023-10-31T06:41:38;2.25;;;2.10;;
72085;SDS011;64750;52.134;5.424;2023-10-31T06:44:08;3.05;;;2.10;;
72085;SDS011;64750;52.134;5.424;2023-10-31T06:46:34;1.95;;;1.67;;
72085;SDS011;64750;52.134;5.424;2023-10-31T06:49:01;2.40;;;2.00;;
72085;SDS011;64750;52.134;5.424;2023-10-31T06:51:28;2.08;;;1.40;;
72085;SDS011;64750;52.134;5.424;2023-10-31T06:53:54;1.88;;;1.67;;
72085;SDS011;64750;52.134;5.424;2023-10-31T06:56:20;4.22;;;1.60;;
72085;SDS011;64750;52.134;5.424;2023-10-31T06:58:47;1.30;;;1.10;;
72085;SDS011;64750;52.134;5.424;2023-10-31T07:01:14;1.00;;;0.90;;
72085;SDS011;64750;52.134;5.424;2023-10-31T07:03:44;3.25;;;1.00;;
72085;SDS011;64750;52.134;5.424;2023-10-31T07:06:11;2.08;;;0.88;;
72085;SDS011;64750;52.134;5.424;2023-10-31T07:08:37;0.68;;;0.60;;
72085;SDS011;64750;52.134;5.424;2023-10-31T07:11:03;2.80;;;0.75;;
72085;SDS011;64750;52.134;5.424;2023-10-31T07:13:30;2.50;;;0.83;;
72085;SDS011;64750;52.134;5.424;2023-10-31T07:15:57;0.82;;;0.73;;
72085;SDS011;64750;52.134;5.424;2023-10-31T07:18:23;1.75;;;0.60;;
72085;SDS011;64750;52.134;5.424;2023-10-31T07:20:49;2.75;;;0.50;;
72085;SDS011;64750;52.134;5.424;2023-10-31T07:23:16;1.20;;;0.40;;
72085;SDS011;64750;52.134;5.424;2023-10-31T07:25:42;1.50;;;0.40;;
72085;SDS011;64750;52.134;5.424;2023-10-31T07:28:09;0.45;;;0.30;;
72085;SDS011;64750;52.134;5.424;2023-10-31T07:30:36;2.40;;;0.75;;
72085;SDS011;64750;52.134;5.424;2023-10-31T07:33:03;1.05;;;0.30;;
72085;SDS011;64750;52.134;5.424;2023-10-31T07:35:29;1.77;;;0.60;;
72085;SDS011;64750;52.134;5.424;2023-10-31T07:37:56;0.60;;;0.40;;
72085;SDS011;64750;52.134;5.424;2023-10-31T07:40:22;1.75;;;0.30;;
72085;SDS011;64750;52.134;5.424;2023-10-31T07:42:49;1.08;;;0.30;;
72085;SDS011;64750;52.134;5.424;2023-10-31T07:45:15;1.35;;;0.38;;
72085;SDS011;64750;52.134;5.424;2023-10-31T07:47:42;1.08;;;0.57;;
72085;SDS011;64750;52.134;5.424;2023-10-31T07:50:08;2.63;;;0.60;;
72085;SDS011;64750;52.134;5.424;2023-10-31T07:52:35;2.80;;;0.70;;
72085;SDS011;64750;52.134;5.424;2023-10-31T07:55:02;0.90;;;0.57;;
72085;SDS011;64750;52.134;5.424;2023-10-31T07:57:28;1.40;;;0.32;;
72085;SDS011;64750;52.134;5.424;2023-10-31T07:59:55;1.33;;;0.63;;
72085;SDS011;64750;52.134;5.424;2023-10-31T08:02:21;1.27;;;0.50;;
72085;SDS011;64750;52.134;5.424;2023-10-31T08:04:48;1.85;;;0.63;;
72085;SDS011;64750;52.134;5.424;2023-10-31T08:07:14;1.50;;;0.52;;
72085;SDS011;64750;52.134;5.424;2023-10-31T08:09:41;2.90;;;0.88;;
72085;SDS011;64750;52.134;5.424;2023-10-31T08:12:08;2.85;;;0.63;;
72085;SDS011;64750;52.134;5.424;2023-10-31T08:14:35;2.20;;;0.80;;
72085;SDS011;64750;52.134;5.424;2023-10-31T08:17:02;2.08;;;0.82;;
72085;SDS011;64750;52.134;5.424;2023-10-31T08:19:28;3.20;;;0.82;;
72085;SDS011;64750;52.134;5.424;2023-10-31T08:21:54;1.50;;;0.77;;
72085;SDS011;64750;52.134;5.424;2023-10-31T08:24:24;2.42;;;0.88;;
72085;SDS011;64750;52.134;5.424;2023-10-31T08:26:50;1.10;;;0.70;;
72085;SDS011;64750;52.134;5.424;2023-10-31T08:29:17;3.85;;;0.70;;
72085;SDS011;64750;52.134;5.424;2023-10-31T08:31:43;5.80;;;0.95;;
72085;SDS011;64750;52.134;5.424;2023-10-31T08:34:10;3.92;;;1.08;;
72085;SDS011;64750;52.134;5.424;2023-10-31T08:36:36;2.30;;;1.13;;
72085;SDS011;64750;52.134;5.424;2023-10-31T08:39:03;1.97;;;1.00;;
72085;SDS011;64750;52.134;5.424;2023-10-31T08:41:30;4.28;;;1.10;;
72085;SDS011;64750;52.134;5.424;2023-10-31T08:43:56;6.60;;;1.33;;
72085;SDS011;64750;52.134;5.424;2023-10-31T08:46:24;4.65;;;1.40;;
72085;SDS011;64750;52.134;5.424;2023-10-31T08:48:51;3.63;;;1.40;;
72085;SDS011;64750;52.134;5.424;2023-10-31T08:51:17;1.83;;;1.20;;
72085;SDS011;64750;52.134;5.424;2023-10-31T08:53:43;3.53;;;1.58;;
72085;SDS011;64750;52.134;5.424;2023-10-31T08:56:10;4.95;;;1.85;;
72085;SDS011;64750;52.134;5.424;2023-10-31T08:58:37;5.80;;;1.60;;
72085;SDS011;64750;52.134;5.424;2023-10-31T09:01:03;4.60;;;1.60;;
72085;SDS011;64750;52.134;5.424;2023-10-31T09:03:30;4.13;;;1.43;;
72085;SDS011;64750;52.134;5.424;2023-10-31T09:05:57;4.82;;;1.60;;
72085;SDS011;64750;52.134;5.424;2023-10-31T09:08:24;4.07;;;1.33;;
72085;SDS011;64750;52.134;5.424;2023-10-31T09:10:50;2.13;;;1.10;;
72085;SDS011;64750;52.134;5.424;2023-10-31T09:13:17;3.17;;;1.10;;
72085;SDS011;64750;52.134;5.424;2023-10-31T09:15:43;2.90;;;1.20;;
72085;SDS011;64750;52.134;5.424;2023-10-31T09:18:12;3.45;;;1.40;;
72085;SDS011;64750;52.134;5.424;2023-10-31T09:20:39;3.53;;;1.48;;
72085;SDS011;64750;52.134;5.424;2023-10-31T09:23:06;4.07;;;1.58;;
72085;SDS011;64750;52.134;5.424;2023-10-31T09:25:32;3.83;;;1.20;;
72085;SDS011;64750;52.134;5.424;2023-10-31T09:27:59;4.63;;;1.35;;
72085;SDS011;64750;52.134;5.424;2023-10-31T09:30:26;4.57;;;1.40;;
72085;SDS011;64750;52.134;5.424;2023-10-31T09:32:53;1.85;;;1.40;;
72085;SDS011;64750;52.134;5.424;2023-10-31T09:35:19;4.10;;;1.50;;
72085;SDS011;64750;52.134;5.424;2023-10-31T09:37:46;3.83;;;1.23;;
72085;SDS011;64750;52.134;5.424;2023-10-31T09:40:15;3.47;;;1.60;;
72085;SDS011;64750;52.134;5.424;2023-10-31T09:42:43;4.45;;;1.38;;
72085;SDS011;64750;52.134;5.424;2023-10-31T09:45:11;2.95;;;1.52;;
72085;SDS011;64750;52.134;5.424;2023-10-31T09:47:39;4.10;;;1.58;;
72085;SDS011;64750;52.134;5.424;2023-10-31T09:50:07;2.43;;;1.30;;
72085;SDS011;64750;52.134;5.424;2023-10-31T09:52:36;2.90;;;1.70;;
72085;SDS011;64750;52.134;5.424;2023-10-31T09:55:02;5.22;;;1.95;;
72085;SDS011;64750;52.134;5.424;2023-10-31T09:57:29;2.72;;;1.67;;
72085;SDS011;64750;52.134;5.424;2023-10-31T09:59:56;6.70;;;1.75;;
72085;SDS011;64750;52.134;5.424;2023-10-31T10:02:22;4.60;;;1.70;;
72085;SDS011;64750;52.134;5.424;2023-10-31T10:04:49;3.17;;;1.50;;
72085;SDS011;64750;52.134;5.424;2023-10-31T10:07:17;2.85;;;1.42;;
72085;SDS011;64750;52.134;5.424;2023-10-31T10:09:44;1.98;;;1.40;;
72085;SDS011;64750;52.134;5.424;2023-10-31T10:12:12;2.35;;;1.63;;
72085;SDS011;64750;52.134;5.424;2023-10-31T10:14:40;4.50;;;1.80;;
72085;SDS011;64750;52.134;5.424;2023-10-31T10:17:13;5.63;;;1.90;;
72085;SDS011;64750;52.134;5.424;2023-10-31T10:19:46;3.90;;;1.42;;
72085;SDS011;64750;52.134;5.424;2023-10-31T10:22:12;7.68;;;1.25;;
72085;SDS011;64750;52.134;5.424;2023-10-31T10:24:41;4.35;;;1.58;;
72085;SDS011;64750;52.134;5.424;2023-10-31T10:27:08;3.87;;;1.60;;
72085;SDS011;64750;52.134;5.424;2023-10-31T10:29:35;5.45;;;1.27;;
72085;SDS011;64750;52.134;5.424;2023-10-31T10:32:06;3.53;;;1.58;;
72085;SDS011;64750;52.134;5.424;2023-10-31T10:34:35;7.18;;;1.30;;
72085;SDS011;64750;52.134;5.424;2023-10-31T10:37:04;5.53;;;1.75;;
72085;SDS011;64750;52.134;5.424;2023-10-31T10:39:32;3.87;;;1.47;;
72085;SDS011;64750;52.134;5.424;2023-10-31T10:42:01;3.90;;;1.30;;
72085;SDS011;64750;52.134;5.424;2023-10-31T10:44:31;3.00;;;1.42;;
72085;SDS011;64750;52.134;5.424;2023-10-31T10:46:58;2.55;;;1.33;;
72085;SDS011;64750;52.134;5.424;2023-10-31T10:49:28;3.63;;;1.08;;
72085;SDS011;64750;52.134;5.424;2023-10-31T10:51:59;2.93;;;1.43;;
72085;SDS011;64750;52.134;5.424;2023-10-31T10:54:32;7.50;;;1.50;;
72085;SDS011;64750;52.134;5.424;2023-10-31T10:57:06;6.13;;;1.85;;
72085;SDS011;64750;52.134;5.424;2023-10-31T10:59:42;4.13;;;1.60;;
72085;SDS011;64750;52.134;5.424;2023-10-31T11:02:17;2.45;;;1.65;;
72085;SDS011;64750;52.134;5.424;2023-10-31T11:04:44;5.80;;;1.37;;
72085;SDS011;64750;52.134;5.424;2023-10-31T11:07:11;3.60;;;1.38;;
72085;SDS011;64750;52.134;5.424;2023-10-31T11:09:38;2.72;;;0.95;;
72085;SDS011;64750;52.134;5.424;2023-10-31T11:12:07;2.97;;;1.00;;
72085;SDS011;64750;52.134;5.424;2023-10-31T11:14:39;2.95;;;1.20;;
72085;SDS011;64750;52.134;5.424;2023-10-31T11:17:10;2.63;;;1.13;;
72085;SDS011;64750;52.134;5.424;2023-10-31T11:19:42;4.47;;;1.63;;
72085;SDS011;64750;52.134;5.424;2023-10-31T11:22:09;3.47;;;1.40;;
72085;SDS011;64750;52.134;5.424;2023-10-31T11:24:37;2.58;;;1.30;;
72085;SDS011;64750;52.134;5.424;2023-10-31T11:27:04;4.95;;;1.60;;
72085;SDS011;64750;52.134;5.424;2023-10-31T11:29:32;3.90;;;1.40;;
72085;SDS011;64750;52.134;5.424;2023-10-31T11:32:00;3.13;;;1.55;;
72085;SDS011;64750;52.134;5.424;2023-10-31T11:34:27;5.43;;;1.55;;
72085;SDS011;64750;52.134;5.424;2023-10-31T11:42:48;4.63;;;1.50;;
72085;SDS011;64750;52.134;5.424;2023-10-31T11:45:26;2.00;;;1.15;;
72085;SDS011;64750;52.134;5.424;2023-10-31T11:47:56;5.45;;;1.50;;
72085;SDS011;64750;52.134;5.424;2023-10-31T11:50:23;6.78;;;1.40;;
72085;SDS011;64750;52.134;5.424;2023-10-31T11:53:26;5.10;;;1.48;;
72085;SDS011;64750;52.134;5.424;2023-10-31T11:55:48;4.27;;;1.47;;
72085;SDS011;64750;52.134;5.424;2023-10-31T11:58:16;3.42;;;1.65;;
72085;SDS011;64750;52.134;5.424;2023-10-31T12:00:47;2.80;;;1.90;;
72085;SDS011;64750;52.134;5.424;2023-10-31T12:03:18;4.43;;;2.40;;
72085;SDS011;64750;52.134;5.424;2023-10-31T12:05:57;4.50;;;2.47;;
72085;SDS011;64750;52.134;5.424;2023-10-31T12:08:27;6.57;;;2.10;;
72085;SDS011;64750;52.134;5.424;2023-10-31T12:11:15;8.48;;;3.13;;
72085;SDS011;64750;52.134;5.424;2023-10-31T12:14:00;5.32;;;3.30;;
72085;SDS011;64750;52.134;5.424;2023-10-31T12:16:31;9.32;;;3.90;;
72085;SDS011;64750;52.134;5.424;2023-10-31T12:18:59;7.32;;;4.20;;
72085;SDS011;64750;52.134;5.424;2023-10-31T12:21:37;5.93;;;4.70;;
72085;SDS011;64750;52.134;5.424;2023-10-31T12:24:06;5.35;;;4.85;;
72085;SDS011;64750;52.134;5.424;2023-10-31T12:26:35;11.68;;;7.43;;
72085;SDS011;64750;52.134;5.424;2023-10-31T12:31:34;15.15;;;9.05;;
72085;SDS011;64750;52.134;5.424;2023-10-31T12:34:04;12.47;;;9.50;;
72085;SDS011;64750;52.134;5.424;2023-10-31T12:36:34;13.60;;;9.57;;
72085;SDS011;64750;52.134;5.424;2023-10-31T12:39:02;18.02;;;11.65;;
72085;SDS011;64750;52.134;5.424;2023-10-31T12:41:30;19.17;;;10.90;;
72085;SDS011;64750;52.134;5.424;2023-10-31T12:43:57;18.08;;;11.63;;
72085;SDS011;64750;52.134;5.424;2023-10-31T12:46:25;16.97;;;10.83;;
72085;SDS011;64750;52.134;5.424;2023-10-31T12:48:56;22.02;;;11.02;;
72085;SDS011;64750;52.134;5.424;2023-10-31T12:51:23;17.02;;;11.10;;
72085;SDS011;64750;52.134;5.424;2023-10-31T12:53:50;16.80;;;10.68;;
72085;SDS011;64750;52.134;5.424;2023-10-31T12:59:09;15.60;;;10.77;;
72085;SDS011;64750;52.134;5.424;2023-10-31T13:01:42;14.65;;;10.88;;
72085;SDS011;64750;52.134;5.424;2023-10-31T13:04:09;17.70;;;10.90;;
72085;SDS011;64750;52.134;5.424;2023-10-31T13:06:38;21.63;;;11.02;;
72085;SDS011;64750;52.134;5.424;2023-10-31T13:09:06;19.90;;;11.85;;
72085;SDS011;64750;52.134;5.424;2023-10-31T13:11:39;23.53;;;11.90;;
72085;SDS011;64750;52.134;5.424;2023-10-31T13:14:06;18.73;;;12.02;;
72085;SDS011;64750;52.134;5.424;2023-10-31T13:16:33;22.15;;;12.80;;
72085;SDS011;64750;52.134;5.424;2023-10-31T13:19:00;18.30;;;11.30;;
72085;SDS011;64750;52.134;5.424;2023-10-31T13:21:26;22.40;;;12.30;;
72085;SDS011;64750;52.134;5.424;2023-10-31T13:23:52;17.00;;;11.47;;
72085;SDS011;64750;52.134;5.424;2023-10-31T13:26:19;23.60;;;12.18;;
72085;SDS011;64750;52.134;5.424;2023-10-31T13:28:46;19.48;;;11.68;;
72085;SDS011;64750;52.134;5.424;2023-10-31T13:31:12;16.00;;;11.18;;
72085;SDS011;64750;52.134;5.424;2023-10-31T13:33:40;21.38;;;11.38;;
72085;SDS011;64750;52.134;5.424;2023-10-31T13:36:06;17.27;;;10.87;;
72085;SDS011;64750;52.134;5.424;2023-10-31T13:38:33;19.08;;;10.57;;
72085;SDS011;64750;52.134;5.424;2023-10-31T13:41:02;15.18;;;10.45;;
72085;SDS011;64750;52.134;5.424;2023-10-31T13:43:28;16.25;;;10.43;;
72085;SDS011;64750;52.134;5.424;2023-10-31T13:45:55;11.43;;;10.15;;
72085;SDS011;64750;52.134;5.424;2023-10-31T13:48:22;14.30;;;10.23;;
72085;SDS011;64750;52.134;5.424;2023-10-31T13:50:48;12.48;;;9.88;;
72085;SDS011;64750;52.134;5.424;2023-10-31T13:53:15;14.88;;;9.57;;
72085;SDS011;64750;52.134;5.424;2023-10-31T13:55:42;15.02;;;10.27;;
72085;SDS011;64750;52.134;5.424;2023-10-31T13:58:09;12.90;;;9.85;;
72085;SDS011;64750;52.134;5.424;2023-10-31T14:00:35;12.87;;;9.27;;
72085;SDS011;64750;52.134;5.424;2023-10-31T14:03:02;10.25;;;8.68;;
72085;SDS011;64750;52.134;5.424;2023-10-31T14:05:30;12.38;;;8.63;;
72085;SDS011;64750;52.134;5.424;2023-10-31T14:07:57;10.65;;;8.27;;
72085;SDS011;64750;52.134;5.424;2023-10-31T14:10:23;15.10;;;8.75;;
72085;SDS011;64750;52.134;5.424;2023-10-31T14:12:52;8.70;;;7.80;;
72085;SDS011;64750;52.134;5.424;2023-10-31T14:15:19;13.27;;;7.97;;
72085;SDS011;64750;52.134;5.424;2023-10-31T14:17:48;11.82;;;8.40;;
72085;SDS011;64750;52.134;5.424;2023-10-31T14:20:16;11.20;;;8.32;;
72085;SDS011;64750;52.134;5.424;2023-10-31T14:22:47;10.98;;;8.80;;
72085;SDS011;64750;52.134;5.424;2023-10-31T14:25:14;9.97;;;8.07;;
72085;SDS011;64750;52.134;5.424;2023-10-31T14:27:42;11.55;;;8.68;;
72085;SDS011;64750;52.134;5.424;2023-10-31T14:30:12;13.32;;;9.23;;
72085;SDS011;64750;52.134;5.424;2023-10-31T14:32:39;10.68;;;9.13;;
72085;SDS011;64750;52.134;5.424;2023-10-31T14:35:08;12.50;;;8.27;;
72085;SDS011;64750;52.134;5.424;2023-10-31T14:37:35;9.37;;;8.20;;
72085;SDS011;64750;52.134;5.424;2023-10-31T14:40:01;14.00;;;8.30;;
72085;SDS011;64750;52.134;5.424;2023-10-31T14:42:30;10.48;;;9.43;;
72085;SDS011;64750;52.134;5.424;2023-10-31T14:44:56;10.75;;;8.85;;
72085;SDS011;64750;52.134;5.424;2023-10-31T14:47:23;13.20;;;9.30;;
72085;SDS011;64750;52.134;5.424;2023-10-31T14:49:50;11.57;;;9.13;;
72085;SDS011;64750;52.134;5.424;2023-10-31T14:52:16;12.35;;;10.15;;
72085;SDS011;64750;52.134;5.424;2023-10-31T14:54:43;13.25;;;10.38;;
72085;SDS011;64750;52.134;5.424;2023-10-31T14:57:09;16.38;;;10.77;;